sensor_id;sensor_type;location;lat;lon;timestamp;temperature;humidity
39519;DHT22;25200;53.394;10.414;2022-12-18T00:01:05;-5.10;82.80
39519;DHT22;25200;53.394;10.414;2022-12-18T00:03:35;-5.10;82.80
39519;DHT22;25200;53.394;10.414;2022-12-18T00:06:01;-5.10;82.80
39519;DHT22;25200;53.394;10.414;2022-12-18T00:08:27;-5.20;82.70
39519;DHT22;25200;53.394;10.414;2022-12-18T00:10:53;-5.20;82.40
39519;DHT22;25200;53.394;10.414;2022-12-18T00:13:19;-5.20;82.60
39519;DHT22;25200;53.394;10.414;2022-12-18T00:15:45;-5.20;82.50
39519;DHT22;25200;53.394;10.414;2022-12-18T00:18:11;-5.20;82.70
39519;DHT22;25200;53.394;10.414;2022-12-18T00:20:38;-5.20;82.60
39519;DHT22;25200;53.394;10.414;2022-12-18T00:23:05;-5.20;82.70
39519;DHT22;25200;53.394;10.414;2022-12-18T00:25:35;-5.20;82.40
39519;DHT22;25200;53.394;10.414;2022-12-18T00:28:02;-5.20;82.40
39519;DHT22;25200;53.394;10.414;2022-12-18T00:30:28;-5.20;82.50
39519;DHT22;25200;53.394;10.414;2022-12-18T00:32:54;-5.20;82.40
39519;DHT22;25200;53.394;10.414;2022-12-18T00:35:20;-5.20;82.30
39519;DHT22;25200;53.394;10.414;2022-12-18T00:37:46;-5.20;82.40
39519;DHT22;25200;53.394;10.414;2022-12-18T00:40:12;-5.30;81.90
39519;DHT22;25200;53.394;10.414;2022-12-18T00:42:38;-5.20;82.30
39519;DHT22;25200;53.394;10.414;2022-12-18T00:45:26;-5.30;82.30
39519;DHT22;25200;53.394;10.414;2022-12-18T00:47:52;-5.30;82.30
39519;DHT22;25200;53.394;10.414;2022-12-18T00:50:18;-5.30;82.30
39519;DHT22;25200;53.394;10.414;2022-12-18T00:52:44;-5.30;82.20
39519;DHT22;25200;53.394;10.414;2022-12-18T00:55:10;-5.30;82.30
39519;DHT22;25200;53.394;10.414;2022-12-18T00:57:36;-5.30;82.10
39519;DHT22;25200;53.394;10.414;2022-12-18T01:00:03;-5.30;82.30
39519;DHT22;25200;53.394;10.414;2022-12-18T01:02:29;-5.30;82.30
39519;DHT22;25200;53.394;10.414;2022-12-18T01:04:55;-5.30;82.50
39519;DHT22;25200;53.394;10.414;2022-12-18T01:07:21;-5.30;81.90
39519;DHT22;25200;53.394;10.414;2022-12-18T01:09:46;-5.40;82.00
39519;DHT22;25200;53.394;10.414;2022-12-18T01:12:12;-5.40;82.00
39519;DHT22;25200;53.394;10.414;2022-12-18T01:14:37;-5.40;81.80
39519;DHT22;25200;53.394;10.414;2022-12-18T01:17:03;-5.40;82.20
39519;DHT22;25200;53.394;10.414;2022-12-18T01:19:29;-5.40;81.90
39519;DHT22;25200;53.394;10.414;2022-12-18T01:21:55;-5.40;82.00
39519;DHT22;25200;53.394;10.414;2022-12-18T01:24:21;-5.40;81.80
39519;DHT22;25200;53.394;10.414;2022-12-18T01:26:47;-5.40;81.90
39519;DHT22;25200;53.394;10.414;2022-12-18T01:29:12;-5.40;82.10
39519;DHT22;25200;53.394;10.414;2022-12-18T01:31:38;-5.40;81.80
39519;DHT22;25200;53.394;10.414;2022-12-18T01:34:05;-5.40;82.10
39519;DHT22;25200;53.394;10.414;2022-12-18T01:36:33;-5.50;82.10
39519;DHT22;25200;53.394;10.414;2022-12-18T01:39:04;-5.50;81.80
39519;DHT22;25200;53.394;10.414;2022-12-18T01:41:32;-5.50;81.80
39519;DHT22;25200;53.394;10.414;2022-12-18T01:47:35;-5.50;81.80
39519;DHT22;25200;53.394;10.414;2022-12-18T01:50:21;-5.50;82.10
39519;DHT22;25200;53.394;10.414;2022-12-18T01:53:10;-5.50;82.20
39519;DHT22;25200;53.394;10.414;2022-12-18T01:55:49;-5.50;82.30
39519;DHT22;25200;53.394;10.414;2022-12-18T01:58:16;-5.50;82.00
39519;DHT22;25200;53.394;10.414;2022-12-18T02:00:42;-5.50;81.70
39519;DHT22;25200;53.394;10.414;2022-12-18T02:03:08;-5.50;81.80
39519;DHT22;25200;53.394;10.414;2022-12-18T02:05:56;-5.50;82.10
39519;DHT22;25200;53.394;10.414;2022-12-18T02:08:39;-5.60;81.80
39519;DHT22;25200;53.394;10.414;2022-12-18T02:19:37;-5.60;82.10
39519;DHT22;25200;53.394;10.414;2022-12-18T02:28:06;-5.60;81.60
39519;DHT22;25200;53.394;10.414;2022-12-18T02:30:35;-5.70;82.20
39519;DHT22;25200;53.394;10.414;2022-12-18T02:33:04;-5.60;82.50
39519;DHT22;25200;53.394;10.414;2022-12-18T02:35:32;-5.60;82.10
39519;DHT22;25200;53.394;10.414;2022-12-18T02:37:59;-5.60;81.80
39519;DHT22;25200;53.394;10.414;2022-12-18T02:40:27;-5.60;82.40
39519;DHT22;25200;53.394;10.414;2022-12-18T02:42:54;-5.60;82.30
39519;DHT22;25200;53.394;10.414;2022-12-18T02:45:20;-5.60;82.20
39519;DHT22;25200;53.394;10.414;2022-12-18T02:47:48;-5.60;81.80
39519;DHT22;25200;53.394;10.414;2022-12-18T02:53:17;-5.60;82.30
39519;DHT22;25200;53.394;10.414;2022-12-18T02:56:13;-5.60;82.20
39519;DHT22;25200;53.394;10.414;2022-12-18T03:01:21;-5.60;82.10
39519;DHT22;25200;53.394;10.414;2022-12-18T03:04:17;-5.60;82.10
39519;DHT22;25200;53.394;10.414;2022-12-18T03:06:48;-5.60;81.70
39519;DHT22;25200;53.394;10.414;2022-12-18T03:09:19;-5.60;81.70
39519;DHT22;25200;53.394;10.414;2022-12-18T03:11:52;-5.60;82.10
39519;DHT22;25200;53.394;10.414;2022-12-18T03:14:40;-5.60;82.10
39519;DHT22;25200;53.394;10.414;2022-12-18T03:17:13;-5.60;82.20
39519;DHT22;25200;53.394;10.414;2022-12-18T03:19:40;-5.60;82.10
39519;DHT22;25200;53.394;10.414;2022-12-18T03:22:07;-5.60;81.50
39519;DHT22;25200;53.394;10.414;2022-12-18T03:24:35;-5.60;81.90
39519;DHT22;25200;53.394;10.414;2022-12-18T03:27:08;-5.60;82.10
39519;DHT22;25200;53.394;10.414;2022-12-18T03:29:40;-5.70;81.30
39519;DHT22;25200;53.394;10.414;2022-12-18T03:32:11;-5.70;81.30
39519;DHT22;25200;53.394;10.414;2022-12-18T03:34:40;-5.70;81.50
39519;DHT22;25200;53.394;10.414;2022-12-18T03:37:06;-5.70;81.60
39519;DHT22;25200;53.394;10.414;2022-12-18T03:39:35;-5.70;82.00
39519;DHT22;25200;53.394;10.414;2022-12-18T03:42:10;-5.70;81.10
39519;DHT22;25200;53.394;10.414;2022-12-18T03:47:27;-5.70;81.80
39519;DHT22;25200;53.394;10.414;2022-12-18T03:52:40;-5.80;81.40
39519;DHT22;25200;53.394;10.414;2022-12-18T03:55:09;-5.80;81.10
39519;DHT22;25200;53.394;10.414;2022-12-18T03:57:35;-5.80;81.50
39519;DHT22;25200;53.394;10.414;2022-12-18T04:00:08;-5.80;81.90
39519;DHT22;25200;53.394;10.414;2022-12-18T04:02:36;-5.80;81.70
39519;DHT22;25200;53.394;10.414;2022-12-18T04:05:04;-5.80;81.10
39519;DHT22;25200;53.394;10.414;2022-12-18T04:07:31;-5.80;81.50
39519;DHT22;25200;53.394;10.414;2022-12-18T04:09:59;-5.80;81.40
39519;DHT22;25200;53.394;10.414;2022-12-18T04:12:27;-5.80;81.20
39519;DHT22;25200;53.394;10.414;2022-12-18T04:14:54;-5.80;81.00
39519;DHT22;25200;53.394;10.414;2022-12-18T04:17:20;-5.80;81.30
39519;DHT22;25200;53.394;10.414;2022-12-18T04:19:46;-5.90;81.20
39519;DHT22;25200;53.394;10.414;2022-12-18T04:22:12;-5.90;81.60
39519;DHT22;25200;53.394;10.414;2022-12-18T04:24:38;-5.90;81.60
39519;DHT22;25200;53.394;10.414;2022-12-18T04:27:03;-5.90;81.40
39519;DHT22;25200;53.394;10.414;2022-12-18T04:29:29;-5.90;81.80
39519;DHT22;25200;53.394;10.414;2022-12-18T04:31:55;-5.80;81.80
39519;DHT22;25200;53.394;10.414;2022-12-18T04:34:21;-5.90;81.70
39519;DHT22;25200;53.394;10.414;2022-12-18T04:36:47;-5.90;81.80
39519;DHT22;25200;53.394;10.414;2022-12-18T04:39:13;-5.80;81.50
39519;DHT22;25200;53.394;10.414;2022-12-18T04:41:39;-5.80;81.80
39519;DHT22;25200;53.394;10.414;2022-12-18T04:44:05;-5.80;81.70
39519;DHT22;25200;53.394;10.414;2022-12-18T04:46:30;-5.80;81.30
39519;DHT22;25200;53.394;10.414;2022-12-18T04:48:56;-5.80;81.20
39519;DHT22;25200;53.394;10.414;2022-12-18T04:51:22;-5.80;81.60
39519;DHT22;25200;53.394;10.414;2022-12-18T04:53:47;-5.80;81.40
39519;DHT22;25200;53.394;10.414;2022-12-18T04:56:14;-5.90;81.40
39519;DHT22;25200;53.394;10.414;2022-12-18T04:58:42;-5.90;81.40
39519;DHT22;25200;53.394;10.414;2022-12-18T05:01:09;-5.90;81.30
39519;DHT22;25200;53.394;10.414;2022-12-18T05:03:36;-5.90;81.70
39519;DHT22;25200;53.394;10.414;2022-12-18T05:06:02;-5.80;81.70
39519;DHT22;25200;53.394;10.414;2022-12-18T05:08:28;-5.80;81.30
39519;DHT22;25200;53.394;10.414;2022-12-18T05:11:04;-5.80;81.40
39519;DHT22;25200;53.394;10.414;2022-12-18T05:13:31;-5.90;81.40
39519;DHT22;25200;53.394;10.414;2022-12-18T05:15:56;-5.90;81.40
39519;DHT22;25200;53.394;10.414;2022-12-18T05:18:25;-5.90;80.60
39519;DHT22;25200;53.394;10.414;2022-12-18T05:20:52;-5.90;81.40
39519;DHT22;25200;53.394;10.414;2022-12-18T05:23:18;-5.90;81.30
39519;DHT22;25200;53.394;10.414;2022-12-18T05:25:54;-5.90;80.90
39519;DHT22;25200;53.394;10.414;2022-12-18T05:28:20;-6.00;80.70
39519;DHT22;25200;53.394;10.414;2022-12-18T05:30:50;-6.00;80.90
39519;DHT22;25200;53.394;10.414;2022-12-18T05:33:18;-6.00;80.40
39519;DHT22;25200;53.394;10.414;2022-12-18T05:35:44;-6.10;80.80
39519;DHT22;25200;53.394;10.414;2022-12-18T05:38:15;-6.10;80.70
39519;DHT22;25200;53.394;10.414;2022-12-18T05:40:42;-6.10;80.60
39519;DHT22;25200;53.394;10.414;2022-12-18T05:43:09;-6.10;80.80
39519;DHT22;25200;53.394;10.414;2022-12-18T05:45:40;-6.10;80.70
39519;DHT22;25200;53.394;10.414;2022-12-18T05:48:06;-6.20;80.60
39519;DHT22;25200;53.394;10.414;2022-12-18T05:50:36;-6.20;80.70
39519;DHT22;25200;53.394;10.414;2022-12-18T05:53:06;-6.20;80.40
39519;DHT22;25200;53.394;10.414;2022-12-18T05:55:35;-6.20;80.50
39519;DHT22;25200;53.394;10.414;2022-12-18T05:58:03;-6.20;80.50
39519;DHT22;25200;53.394;10.414;2022-12-18T06:00:30;-6.20;80.70
39519;DHT22;25200;53.394;10.414;2022-12-18T06:02:55;-6.20;80.90
39519;DHT22;25200;53.394;10.414;2022-12-18T06:05:21;-6.30;80.70
39519;DHT22;25200;53.394;10.414;2022-12-18T06:07:47;-6.30;80.60
39519;DHT22;25200;53.394;10.414;2022-12-18T06:10:13;-6.30;81.00
39519;DHT22;25200;53.394;10.414;2022-12-18T06:12:38;-6.30;80.50
39519;DHT22;25200;53.394;10.414;2022-12-18T06:15:04;-6.30;80.70
39519;DHT22;25200;53.394;10.414;2022-12-18T06:17:32;-6.30;80.80
39519;DHT22;25200;53.394;10.414;2022-12-18T06:19:58;-6.30;80.50
39519;DHT22;25200;53.394;10.414;2022-12-18T06:22:24;-6.30;80.70
39519;DHT22;25200;53.394;10.414;2022-12-18T06:24:50;-6.30;80.50
39519;DHT22;25200;53.394;10.414;2022-12-18T06:27:16;-6.30;80.50
39519;DHT22;25200;53.394;10.414;2022-12-18T06:29:42;-6.30;80.60
39519;DHT22;25200;53.394;10.414;2022-12-18T06:32:07;-6.30;80.60
39519;DHT22;25200;53.394;10.414;2022-12-18T06:34:33;-6.30;80.70
39519;DHT22;25200;53.394;10.414;2022-12-18T06:36:59;-6.40;80.50
39519;DHT22;25200;53.394;10.414;2022-12-18T06:39:26;-6.40;80.50
39519;DHT22;25200;53.394;10.414;2022-12-18T06:41:53;-6.40;80.50
39519;DHT22;25200;53.394;10.414;2022-12-18T06:44:18;-6.40;80.80
39519;DHT22;25200;53.394;10.414;2022-12-18T06:46:44;-6.40;80.60
39519;DHT22;25200;53.394;10.414;2022-12-18T06:49:10;-6.40;80.40
39519;DHT22;25200;53.394;10.414;2022-12-18T06:51:35;-6.40;80.50
39519;DHT22;25200;53.394;10.414;2022-12-18T06:54:01;-6.40;80.50
39519;DHT22;25200;53.394;10.414;2022-12-18T06:56:27;-6.40;80.70
39519;DHT22;25200;53.394;10.414;2022-12-18T06:58:53;-6.40;80.80
39519;DHT22;25200;53.394;10.414;2022-12-18T07:01:19;-6.40;80.40
39519;DHT22;25200;53.394;10.414;2022-12-18T07:03:45;-6.40;80.70
39519;DHT22;25200;53.394;10.414;2022-12-18T07:06:15;-6.40;80.50
39519;DHT22;25200;53.394;10.414;2022-12-18T07:08:41;-6.40;80.40
39519;DHT22;25200;53.394;10.414;2022-12-18T07:11:07;-6.40;80.40
39519;DHT22;25200;53.394;10.414;2022-12-18T07:13:33;-6.40;80.70
39519;DHT22;25200;53.394;10.414;2022-12-18T07:18:32;-6.40;80.70
39519;DHT22;25200;53.394;10.414;2022-12-18T07:20:57;-6.40;80.70
39519;DHT22;25200;53.394;10.414;2022-12-18T07:23:23;-6.50;80.30
39519;DHT22;25200;53.394;10.414;2022-12-18T07:25:48;-6.50;80.40
39519;DHT22;25200;53.394;10.414;2022-12-18T07:28:14;-6.50;80.40
39519;DHT22;25200;53.394;10.414;2022-12-18T07:30:40;-6.50;80.60
39519;DHT22;25200;53.394;10.414;2022-12-18T07:33:05;-6.50;80.50
39519;DHT22;25200;53.394;10.414;2022-12-18T07:35:33;-6.50;80.50
39519;DHT22;25200;53.394;10.414;2022-12-18T07:38:02;-6.50;80.70
39519;DHT22;25200;53.394;10.414;2022-12-18T07:40:28;-6.50;80.70
39519;DHT22;25200;53.394;10.414;2022-12-18T07:42:53;-6.50;80.70
39519;DHT22;25200;53.394;10.414;2022-12-18T07:45:19;-6.40;80.70
39519;DHT22;25200;53.394;10.414;2022-12-18T07:47:45;-6.40;80.70
39519;DHT22;25200;53.394;10.414;2022-12-18T07:50:10;-6.40;80.70
39519;DHT22;25200;53.394;10.414;2022-12-18T07:52:36;-6.40;81.00
39519;DHT22;25200;53.394;10.414;2022-12-18T07:55:02;-6.40;80.70
39519;DHT22;25200;53.394;10.414;2022-12-18T07:57:28;-6.50;80.70
39519;DHT22;25200;53.394;10.414;2022-12-18T07:59:54;-6.40;81.10
39519;DHT22;25200;53.394;10.414;2022-12-18T08:02:19;-6.40;80.90
39519;DHT22;25200;53.394;10.414;2022-12-18T08:04:45;-6.40;80.90
39519;DHT22;25200;53.394;10.414;2022-12-18T08:07:11;-6.40;81.10
39519;DHT22;25200;53.394;10.414;2022-12-18T08:09:37;-6.40;81.10
39519;DHT22;25200;53.394;10.414;2022-12-18T08:12:03;-6.40;81.20
39519;DHT22;25200;53.394;10.414;2022-12-18T08:14:29;-6.40;81.00
39519;DHT22;25200;53.394;10.414;2022-12-18T08:16:54;-6.40;81.20
39519;DHT22;25200;53.394;10.414;2022-12-18T08:19:20;-6.40;81.00
39519;DHT22;25200;53.394;10.414;2022-12-18T08:21:46;-6.40;81.20
39519;DHT22;25200;53.394;10.414;2022-12-18T08:24:11;-6.40;81.30
39519;DHT22;25200;53.394;10.414;2022-12-18T08:26:37;-6.40;81.40
39519;DHT22;25200;53.394;10.414;2022-12-18T08:29:03;-6.40;81.40
39519;DHT22;25200;53.394;10.414;2022-12-18T08:31:30;-6.40;81.40
39519;DHT22;25200;53.394;10.414;2022-12-18T08:33:56;-6.40;81.70
39519;DHT22;25200;53.394;10.414;2022-12-18T08:36:23;-6.40;81.60
39519;DHT22;25200;53.394;10.414;2022-12-18T08:38:49;-6.30;81.80
39519;DHT22;25200;53.394;10.414;2022-12-18T08:41:16;-6.30;81.80
39519;DHT22;25200;53.394;10.414;2022-12-18T08:43:42;-6.30;81.70
39519;DHT22;25200;53.394;10.414;2022-12-18T08:46:30;-6.30;81.80
39519;DHT22;25200;53.394;10.414;2022-12-18T08:48:57;-6.30;82.10
39519;DHT22;25200;53.394;10.414;2022-12-18T08:51:23;-6.20;82.10
39519;DHT22;25200;53.394;10.414;2022-12-18T08:53:49;-6.20;82.10
39519;DHT22;25200;53.394;10.414;2022-12-18T08:56:15;-6.20;82.10
39519;DHT22;25200;53.394;10.414;2022-12-18T08:58:41;-6.20;82.10
39519;DHT22;25200;53.394;10.414;2022-12-18T09:01:09;-6.10;82.00
39519;DHT22;25200;53.394;10.414;2022-12-18T09:03:36;-6.10;82.20
39519;DHT22;25200;53.394;10.414;2022-12-18T09:06:02;-6.10;82.30
39519;DHT22;25200;53.394;10.414;2022-12-18T09:08:28;-6.10;82.20
39519;DHT22;25200;53.394;10.414;2022-12-18T09:10:54;-6.00;82.40
39519;DHT22;25200;53.394;10.414;2022-12-18T09:13:21;-6.00;82.30
39519;DHT22;25200;53.394;10.414;2022-12-18T09:15:53;-6.00;82.20
39519;DHT22;25200;53.394;10.414;2022-12-18T09:18:20;-6.00;82.20
39519;DHT22;25200;53.394;10.414;2022-12-18T09:20:46;-5.90;82.10
39519;DHT22;25200;53.394;10.414;2022-12-18T09:23:13;-5.90;82.20
39519;DHT22;25200;53.394;10.414;2022-12-18T09:25:39;-5.90;82.20
39519;DHT22;25200;53.394;10.414;2022-12-18T09:28:10;-5.90;82.10
39519;DHT22;25200;53.394;10.414;2022-12-18T09:30:40;-5.90;82.20
39519;DHT22;25200;53.394;10.414;2022-12-18T09:33:06;-5.90;82.30
39519;DHT22;25200;53.394;10.414;2022-12-18T09:35:35;-5.90;82.30
39519;DHT22;25200;53.394;10.414;2022-12-18T09:38:05;-5.90;82.30
39519;DHT22;25200;53.394;10.414;2022-12-18T09:40:39;-5.80;82.30
39519;DHT22;25200;53.394;10.414;2022-12-18T09:43:06;-5.80;82.50
39519;DHT22;25200;53.394;10.414;2022-12-18T09:45:42;-5.80;82.50
39519;DHT22;25200;53.394;10.414;2022-12-18T09:48:34;-5.80;82.50
39519;DHT22;25200;53.394;10.414;2022-12-18T09:51:05;-5.70;82.50
39519;DHT22;25200;53.394;10.414;2022-12-18T09:53:35;-5.70;82.60
39519;DHT22;25200;53.394;10.414;2022-12-18T09:56:04;-5.70;82.80
39519;DHT22;25200;53.394;10.414;2022-12-18T09:58:31;-5.60;83.00
39519;DHT22;25200;53.394;10.414;2022-12-18T10:01:00;-5.60;82.90
39519;DHT22;25200;53.394;10.414;2022-12-18T10:03:26;-5.50;83.30
39519;DHT22;25200;53.394;10.414;2022-12-18T10:06:08;-5.50;83.30
39519;DHT22;25200;53.394;10.414;2022-12-18T10:08:40;-5.40;83.00
39519;DHT22;25200;53.394;10.414;2022-12-18T10:13:54;-5.30;83.80
39519;DHT22;25200;53.394;10.414;2022-12-18T10:22:20;-5.20;83.10
39519;DHT22;25200;53.394;10.414;2022-12-18T10:27:14;-5.10;82.90
39519;DHT22;25200;53.394;10.414;2022-12-18T10:29:41;-5.00;82.70
39519;DHT22;25200;53.394;10.414;2022-12-18T10:32:07;-4.90;83.10
39519;DHT22;25200;53.394;10.414;2022-12-18T10:34:34;-4.90;83.10
39519;DHT22;25200;53.394;10.414;2022-12-18T10:37:00;-4.80;82.80
39519;DHT22;25200;53.394;10.414;2022-12-18T10:39:29;-4.80;82.70
39519;DHT22;25200;53.394;10.414;2022-12-18T10:42:17;-4.70;82.90
39519;DHT22;25200;53.394;10.414;2022-12-18T10:44:43;-4.70;83.00
39519;DHT22;25200;53.394;10.414;2022-12-18T10:47:15;-4.60;83.70
39519;DHT22;25200;53.394;10.414;2022-12-18T10:49:47;-4.60;83.10
39519;DHT22;25200;53.394;10.414;2022-12-18T10:52:18;-4.60;83.20
39519;DHT22;25200;53.394;10.414;2022-12-18T10:54:59;-4.60;83.10
39519;DHT22;25200;53.394;10.414;2022-12-18T10:59:57;-4.50;83.60
39519;DHT22;25200;53.394;10.414;2022-12-18T11:02:44;-4.50;83.40
39519;DHT22;25200;53.394;10.414;2022-12-18T11:07:54;-4.40;83.50
39519;DHT22;25200;53.394;10.414;2022-12-18T11:10:30;-4.30;83.60
39519;DHT22;25200;53.394;10.414;2022-12-18T11:13:15;-4.20;83.20
39519;DHT22;25200;53.394;10.414;2022-12-18T11:15:42;-4.20;83.50
39519;DHT22;25200;53.394;10.414;2022-12-18T11:20:42;-4.10;83.10
39519;DHT22;25200;53.394;10.414;2022-12-18T11:23:12;-4.00;82.90
39519;DHT22;25200;53.394;10.414;2022-12-18T11:25:38;-3.90;83.10
39519;DHT22;25200;53.394;10.414;2022-12-18T11:28:05;-3.80;83.10
39519;DHT22;25200;53.394;10.414;2022-12-18T11:30:32;-3.80;83.10
39519;DHT22;25200;53.394;10.414;2022-12-18T11:33:12;-3.80;82.80
39519;DHT22;25200;53.394;10.414;2022-12-18T11:38:26;-3.60;82.80
39519;DHT22;25200;53.394;10.414;2022-12-18T11:41:00;-3.60;82.70
39519;DHT22;25200;53.394;10.414;2022-12-18T11:43:28;-3.60;82.90
39519;DHT22;25200;53.394;10.414;2022-12-18T11:46:02;-3.50;83.00
39519;DHT22;25200;53.394;10.414;2022-12-18T11:48:30;-3.50;83.10
39519;DHT22;25200;53.394;10.414;2022-12-18T11:50:58;-3.50;82.80
39519;DHT22;25200;53.394;10.414;2022-12-18T11:53:25;-3.50;83.10
39519;DHT22;25200;53.394;10.414;2022-12-18T11:58:37;-3.40;83.80
39519;DHT22;25200;53.394;10.414;2022-12-18T12:03:51;-3.30;83.10
39519;DHT22;25200;53.394;10.414;2022-12-18T12:06:25;-3.30;83.20
39519;DHT22;25200;53.394;10.414;2022-12-18T12:09:10;-3.20;83.80
39519;DHT22;25200;53.394;10.414;2022-12-18T12:21:58;-3.00;83.30
39519;DHT22;25200;53.394;10.414;2022-12-18T12:37:48;-2.90;83.50
39519;DHT22;25200;53.394;10.414;2022-12-18T12:40:18;-2.90;83.30
39519;DHT22;25200;53.394;10.414;2022-12-18T12:42:46;-2.80;86.60
39519;DHT22;25200;53.394;10.414;2022-12-18T12:48:07;-2.70;84.10
39519;DHT22;25200;53.394;10.414;2022-12-18T12:50:36;-2.70;83.80
39519;DHT22;25200;53.394;10.414;2022-12-18T12:53:05;-2.70;83.60
39519;DHT22;25200;53.394;10.414;2022-12-18T12:55:33;-2.60;83.60
39519;DHT22;25200;53.394;10.414;2022-12-18T12:58:02;-2.60;83.60
39519;DHT22;25200;53.394;10.414;2022-12-18T13:00:35;-2.60;83.50
39519;DHT22;25200;53.394;10.414;2022-12-18T13:05:31;-2.60;83.60
39519;DHT22;25200;53.394;10.414;2022-12-18T13:08:03;-2.50;83.80
39519;DHT22;25200;53.394;10.414;2022-12-18T13:15:22;-2.40;83.90
39519;DHT22;25200;53.394;10.414;2022-12-18T13:17:48;-2.40;83.80
39519;DHT22;25200;53.394;10.414;2022-12-18T13:20:14;-2.40;84.00
39519;DHT22;25200;53.394;10.414;2022-12-18T13:22:44;-2.40;83.60
39519;DHT22;25200;53.394;10.414;2022-12-18T13:28:02;-2.30;84.00
39519;DHT22;25200;53.394;10.414;2022-12-18T13:41:03;-2.30;84.20
39519;DHT22;25200;53.394;10.414;2022-12-18T13:43:31;-2.30;84.00
39519;DHT22;25200;53.394;10.414;2022-12-18T13:45:59;-2.30;84.10
39519;DHT22;25200;53.394;10.414;2022-12-18T13:48:26;-2.30;84.10
39519;DHT22;25200;53.394;10.414;2022-12-18T13:50:53;-2.40;84.10
39519;DHT22;25200;53.394;10.414;2022-12-18T13:53:21;-2.40;84.10
39519;DHT22;25200;53.394;10.414;2022-12-18T13:55:48;-2.40;84.10
39519;DHT22;25200;53.394;10.414;2022-12-18T13:58:14;-2.50;84.00
39519;DHT22;25200;53.394;10.414;2022-12-18T14:00:43;-2.50;84.00
39519;DHT22;25200;53.394;10.414;2022-12-18T14:03:20;-2.50;84.00
39519;DHT22;25200;53.394;10.414;2022-12-18T14:05:45;-2.60;84.00
39519;DHT22;25200;53.394;10.414;2022-12-18T14:08:17;-2.60;84.00
39519;DHT22;25200;53.394;10.414;2022-12-18T14:10:44;-2.60;84.20
39519;DHT22;25200;53.394;10.414;2022-12-18T14:13:13;-2.70;84.10
39519;DHT22;25200;53.394;10.414;2022-12-18T14:18:25;-2.70;84.20
39519;DHT22;25200;53.394;10.414;2022-12-18T14:20:52;-2.70;84.10
39519;DHT22;25200;53.394;10.414;2022-12-18T14:23:29;-2.70;84.10
39519;DHT22;25200;53.394;10.414;2022-12-18T14:25:54;-2.80;84.00
39519;DHT22;25200;53.394;10.414;2022-12-18T14:28:20;-2.70;84.10
39519;DHT22;25200;53.394;10.414;2022-12-18T14:30:49;-2.80;83.90
39519;DHT22;25200;53.394;10.414;2022-12-18T14:33:15;-2.80;84.00
39519;DHT22;25200;53.394;10.414;2022-12-18T14:36:04;-2.80;84.60
39519;DHT22;25200;53.394;10.414;2022-12-18T14:40:55;-2.70;83.90
39519;DHT22;25200;53.394;10.414;2022-12-18T14:43:21;-2.70;84.00
39519;DHT22;25200;53.394;10.414;2022-12-18T14:45:47;-2.70;83.90
39519;DHT22;25200;53.394;10.414;2022-12-18T14:48:17;-2.60;85.20
39519;DHT22;25200;53.394;10.414;2022-12-18T14:50:44;-2.70;84.80
39519;DHT22;25200;53.394;10.414;2022-12-18T14:53:20;-2.70;84.80
39519;DHT22;25200;53.394;10.414;2022-12-18T14:55:48;-2.70;84.10
39519;DHT22;25200;53.394;10.414;2022-12-18T14:58:15;-2.70;83.90
39519;DHT22;25200;53.394;10.414;2022-12-18T15:00:41;-2.70;83.80
39519;DHT22;25200;53.394;10.414;2022-12-18T15:03:07;-2.70;83.70
39519;DHT22;25200;53.394;10.414;2022-12-18T15:05:33;-2.70;83.60
39519;DHT22;25200;53.394;10.414;2022-12-18T15:08:00;-2.60;83.60
39519;DHT22;25200;53.394;10.414;2022-12-18T15:18:05;-2.60;83.40
39519;DHT22;25200;53.394;10.414;2022-12-18T15:23:17;-2.70;83.20
39519;DHT22;25200;53.394;10.414;2022-12-18T15:25:43;-2.70;83.20
39519;DHT22;25200;53.394;10.414;2022-12-18T15:31:00;-2.70;83.30
39519;DHT22;25200;53.394;10.414;2022-12-18T15:33:29;-2.70;83.30
39519;DHT22;25200;53.394;10.414;2022-12-18T15:36:02;-2.70;83.30
39519;DHT22;25200;53.394;10.414;2022-12-18T15:38:27;-2.70;83.30
39519;DHT22;25200;53.394;10.414;2022-12-18T15:40:53;-2.80;83.30
39519;DHT22;25200;53.394;10.414;2022-12-18T15:43:22;-2.70;83.40
39519;DHT22;25200;53.394;10.414;2022-12-18T15:46:01;-2.70;83.30
39519;DHT22;25200;53.394;10.414;2022-12-18T15:48:27;-2.70;83.30
39519;DHT22;25200;53.394;10.414;2022-12-18T15:50:53;-2.70;83.40
39519;DHT22;25200;53.394;10.414;2022-12-18T15:53:25;-2.70;83.40
39519;DHT22;25200;53.394;10.414;2022-12-18T15:55:53;-2.80;83.40
39519;DHT22;25200;53.394;10.414;2022-12-18T15:58:37;-2.70;83.40
39519;DHT22;25200;53.394;10.414;2022-12-18T16:01:03;-2.70;83.50
39519;DHT22;25200;53.394;10.414;2022-12-18T16:03:28;-2.70;83.40
39519;DHT22;25200;53.394;10.414;2022-12-18T16:05:54;-2.70;83.40
39519;DHT22;25200;53.394;10.414;2022-12-18T16:08:19;-2.70;83.40
39519;DHT22;25200;53.394;10.414;2022-12-18T16:10:45;-2.70;83.40
39519;DHT22;25200;53.394;10.414;2022-12-18T16:13:11;-2.70;83.40
39519;DHT22;25200;53.394;10.414;2022-12-18T16:15:37;-2.70;83.40
39519;DHT22;25200;53.394;10.414;2022-12-18T16:18:02;-2.70;83.40
39519;DHT22;25200;53.394;10.414;2022-12-18T16:20:28;-2.60;83.40
39519;DHT22;25200;53.394;10.414;2022-12-18T16:22:54;-2.60;83.40
39519;DHT22;25200;53.394;10.414;2022-12-18T16:25:20;-2.60;83.50
39519;DHT22;25200;53.394;10.414;2022-12-18T16:27:46;-2.60;83.50
39519;DHT22;25200;53.394;10.414;2022-12-18T16:30:13;-2.60;83.40
39519;DHT22;25200;53.394;10.414;2022-12-18T16:32:41;-2.60;83.40
39519;DHT22;25200;53.394;10.414;2022-12-18T16:35:11;-2.60;83.40
39519;DHT22;25200;53.394;10.414;2022-12-18T16:37:37;-2.60;83.50
39519;DHT22;25200;53.394;10.414;2022-12-18T16:40:02;-2.60;83.50
39519;DHT22;25200;53.394;10.414;2022-12-18T16:42:28;-2.60;83.50
39519;DHT22;25200;53.394;10.414;2022-12-18T16:44:54;-2.60;83.50
39519;DHT22;25200;53.394;10.414;2022-12-18T16:47:19;-2.60;83.50
39519;DHT22;25200;53.394;10.414;2022-12-18T16:49:45;-2.60;83.50
39519;DHT22;25200;53.394;10.414;2022-12-18T16:52:11;-2.60;83.40
39519;DHT22;25200;53.394;10.414;2022-12-18T16:54:36;-2.60;83.40
39519;DHT22;25200;53.394;10.414;2022-12-18T16:57:02;-2.60;83.40
39519;DHT22;25200;53.394;10.414;2022-12-18T16:59:29;-2.60;83.40
39519;DHT22;25200;53.394;10.414;2022-12-18T17:01:55;-2.60;83.40
39519;DHT22;25200;53.394;10.414;2022-12-18T17:04:21;-2.60;83.50
39519;DHT22;25200;53.394;10.414;2022-12-18T17:06:47;-2.60;83.50
39519;DHT22;25200;53.394;10.414;2022-12-18T17:09:18;-2.50;83.60
39519;DHT22;25200;53.394;10.414;2022-12-18T17:11:50;-2.50;83.60
39519;DHT22;25200;53.394;10.414;2022-12-18T17:14:17;-2.60;83.50
39519;DHT22;25200;53.394;10.414;2022-12-18T17:16:42;-2.60;83.60
39519;DHT22;25200;53.394;10.414;2022-12-18T17:19:08;-2.60;83.50
39519;DHT22;25200;53.394;10.414;2022-12-18T17:21:34;-2.60;83.50
39519;DHT22;25200;53.394;10.414;2022-12-18T17:24:00;-2.50;83.60
39519;DHT22;25200;53.394;10.414;2022-12-18T17:26:25;-2.50;83.70